createdAt,value
2018-03-04T00:00:26.148Z,83.05
2018-03-04T00:01:26.156Z,82.95
2018-03-04T00:02:26.162Z,83.05
2018-03-04T00:03:26.174Z,83.14
2018-03-04T00:04:26.181Z,83.24
2018-03-04T00:05:26.193Z,83.33
2018-03-04T00:06:26.200Z,82.86
2018-03-04T00:07:40.874Z,83.61
2018-03-04T00:08:26.309Z,83.43
2018-03-04T00:10:26.235Z,82.95
2018-03-04T00:11:26.245Z,83.43
2018-03-04T00:12:25.994Z,83.61
2018-03-04T00:13:26.268Z,84.09
2018-03-04T00:14:26.268Z,83.61
2018-03-04T00:15:26.276Z,84.37
2018-03-04T00:16:26.286Z,83.99
2018-03-04T00:17:26.293Z,84.18
2018-03-04T00:18:26.047Z,83.8
2018-03-04T00:19:26.314Z,83.71
2018-03-04T00:20:26.318Z,83.8
2018-03-04T00:21:26.327Z,83.9
2018-03-04T00:22:41.003Z,83.9
2018-03-04T00:23:26.347Z,84.09
2018-03-04T00:24:26.351Z,83.99
2018-03-04T00:25:26.365Z,84.09
2018-03-04T00:26:26.379Z,83.9
2018-03-04T00:27:26.381Z,83.8
2018-03-04T00:28:26.397Z,83.9
2018-03-04T00:29:26.397Z,83.8
2018-03-04T00:30:26.408Z,83.71
2018-03-04T00:31:26.415Z,83.99
2018-03-04T00:32:26.174Z,84.28
2018-03-04T00:33:26.434Z,84.28
2018-03-04T00:34:26.442Z,83.9
2018-03-04T00:36:26.458Z,84.47
2018-03-04T00:37:26.465Z,84.56
2018-03-04T00:38:26.474Z,84.47
2018-03-04T00:39:26.483Z,84.47
2018-03-04T00:40:26.490Z,84.37
2018-03-04T00:41:26.501Z,84.37
2018-03-04T00:42:26.512Z,84.47
2018-03-04T00:43:26.262Z,84.56
2018-03-04T00:44:26.524Z,84.56
2018-03-04T00:45:26.533Z,84.37
2018-03-04T00:46:26.544Z,84.37
2018-03-04T00:47:26.551Z,84.37
2018-03-04T00:48:26.557Z,84.56
2018-03-04T00:49:26.571Z,84.65
2018-03-04T00:50:26.576Z,84.84
2018-03-04T00:51:26.586Z,84.42
2018-03-04T00:52:26.596Z,85.17
2018-03-04T00:54:41.284Z,85.13
2018-03-04T00:55:26.621Z,84.99
2018-03-04T00:57:26.637Z,84.89
2018-03-04T00:58:26.644Z,84.52
2018-03-04T00:59:26.401Z,85.17
2018-03-04T01:00:26.664Z,85.36
2018-03-04T01:01:26.668Z,85.27
2018-03-04T01:02:26.687Z,84.99
2018-03-04T01:03:26.687Z,84.99
2018-03-04T01:04:26.444Z,84.89
2018-03-04T01:05:26.706Z,84.89
2018-03-04T01:06:26.716Z,84.7
2018-03-04T01:07:26.724Z,84.99
2018-03-04T01:08:26.740Z,84.89
2018-03-04T01:09:26.740Z,85.17
2018-03-04T01:10:41.415Z,84.99
2018-03-04T01:11:26.755Z,85.17
2018-03-04T01:13:26.775Z,84.7
2018-03-04T01:14:26.527Z,84.7
2018-03-04T01:15:26.788Z,85.08
2018-03-04T01:16:26.798Z,85.27
2018-03-04T01:17:26.820Z,85.17
2018-03-04T01:18:26.821Z,85.08
2018-03-04T01:19:26.822Z,84.8
2018-03-04T01:20:26.834Z,85.17
2018-03-04T01:21:26.842Z,84.99
2018-03-04T01:22:26.852Z,85.27
2018-03-04T01:23:26.857Z,85.27
2018-03-04T01:24:26.865Z,85.36
2018-03-04T01:25:26.875Z,85.27
2018-03-04T01:26:41.650Z,84.7
2018-03-04T01:27:26.895Z,84.52
2018-03-04T01:28:26.900Z,84.61
2018-03-04T01:29:26.655Z,85.64
2018-03-04T01:30:26.918Z,85.55
2018-03-04T01:31:26.926Z,85.17
2018-03-04T01:32:26.935Z,85.74
2018-03-04T01:33:26.944Z,84.42
2018-03-04T01:34:26.954Z,85.22
2018-03-04T01:35:27.062Z,85.55
2018-03-04T01:36:26.969Z,85.17
2018-03-04T01:37:26.721Z,84.8
2018-03-04T01:38:26.985Z,84.52
2018-03-04T01:39:26.737Z,84.7
2018-03-04T01:40:26.748Z,85.17
2018-03-04T01:41:27.012Z,84.7
2018-03-04T01:42:41.685Z,85.36
2018-03-04T01:43:27.026Z,85.46
2018-03-04T01:44:27.037Z,85.27
2018-03-04T01:45:27.046Z,84.8
2018-03-04T01:46:27.053Z,85.36
2018-03-04T01:47:27.062Z,85.27
2018-03-04T01:48:27.068Z,84.99
2018-03-04T01:49:27.078Z,84.99
2018-03-04T01:50:27.090Z,85.55
2018-03-04T01:51:27.096Z,85.17
2018-03-04T01:52:27.103Z,85.46
2018-03-04T01:53:27.116Z,85.64
2018-03-04T01:54:26.865Z,85.46
2018-03-04T01:55:27.128Z,86.02
2018-03-04T01:56:26.886Z,85.83
2018-03-04T01:57:41.813Z,85.83
2018-03-04T01:58:26.900Z,85.46
2018-03-04T01:59:27.182Z,85.55
2018-03-04T02:00:27.183Z,85.46
2018-03-04T02:01:27.190Z,85.74
2018-03-04T02:02:27.190Z,86.02
2018-03-04T02:03:27.194Z,85.64
2018-03-04T02:04:26.950Z,85.55
2018-03-04T02:05:27.214Z,85.83
2018-03-04T02:06:27.227Z,85.83
2018-03-04T02:08:27.246Z,85.83
2018-03-04T02:09:26.992Z,86.02
2018-03-04T02:10:27.255Z,85.83
2018-03-04T02:11:27.263Z,86.21
2018-03-04T02:12:27.272Z,85.83
2018-03-04T02:14:27.287Z,85.64
2018-03-04T02:15:27.297Z,85.64
2018-03-04T02:16:27.305Z,85.64
2018-03-04T02:17:27.312Z,86.11
2018-03-04T02:18:27.321Z,86.11
2018-03-04T02:20:27.338Z,85.93
2018-03-04T02:21:27.347Z,85.74
2018-03-04T02:22:27.360Z,86.02
2018-03-04T02:23:27.370Z,85.93
2018-03-04T02:24:27.118Z,85.93
2018-03-04T02:25:27.383Z,85.55
2018-03-04T02:26:27.390Z,86.21
2018-03-04T02:27:27.397Z,86.02
2018-03-04T02:28:27.404Z,86.68
2018-03-04T02:29:42.081Z,86.77
2018-03-04T02:30:27.430Z,86.59
2018-03-04T02:31:27.432Z,86.49
2018-03-04T02:32:27.439Z,86.59
2018-03-04T02:33:27.466Z,86.59
2018-03-04T02:34:27.473Z,86.68
2018-03-04T02:35:27.466Z,86.59
2018-03-04T02:36:27.475Z,86.59
2018-03-04T02:37:27.483Z,86.68
2018-03-04T02:38:27.496Z,86.68
2018-03-04T02:39:27.517Z,86.49
2018-03-04T02:40:27.513Z,86.49
2018-03-04T02:41:27.518Z,86.68
2018-03-04T02:43:27.532Z,86.4
2018-03-04T02:44:27.553Z,86.59
2018-03-04T02:45:42.213Z,86.77
2018-03-04T02:46:27.557Z,86.68
2018-03-04T02:47:27.577Z,87.06
2018-03-04T02:48:27.574Z,87.06
2018-03-04T02:49:27.327Z,86.77
2018-03-04T02:50:27.589Z,87.15
2018-03-04T02:51:27.341Z,87.15
2018-03-04T02:52:27.355Z,87.06
2018-03-04T02:53:27.359Z,87.53
2018-03-04T02:54:27.367Z,87.44
2018-03-04T02:55:27.634Z,87.34
2018-03-04T02:56:27.641Z,87.53
2018-03-04T02:57:27.392Z,87.44
2018-03-04T02:58:27.399Z,87.81
2018-03-04T02:59:27.411Z,87.62
2018-03-04T03:00:27.672Z,87.72
2018-03-04T03:01:42.345Z,88.1
2018-03-04T03:03:27.442Z,87.81
2018-03-04T03:04:27.454Z,87.91
2018-03-04T03:05:27.457Z,87.81
2018-03-04T03:06:27.722Z,87.81
2018-03-04T03:07:27.475Z,87.91
2018-03-04T03:08:27.741Z,87.91
2018-03-04T03:09:27.750Z,87.91
2018-03-04T03:10:27.558Z,88.1
2018-03-04T03:11:27.507Z,87.72
2018-03-04T03:12:27.768Z,87.81
2018-03-04T03:13:27.789Z,88
2018-03-04T03:14:27.786Z,87.91
2018-03-04T03:16:27.553Z,87.81
2018-03-04T03:17:42.478Z,88
2018-03-04T03:18:27.565Z,87.72
2018-03-04T03:19:27.896Z,87.91
2018-03-04T03:20:27.837Z,87.72
2018-03-04T03:21:27.843Z,87.72
2018-03-04T03:22:27.862Z,87.62
2018-03-04T03:23:27.861Z,87.81
2018-03-04T03:24:27.870Z,88
2018-03-04T03:25:27.877Z,88.19
2018-03-04T03:26:27.887Z,87.62
2018-03-04T03:27:27.901Z,87.81
2018-03-04T03:28:27.903Z,87.81
2018-03-04T03:29:27.655Z,87.72
2018-03-04T03:30:27.923Z,87.81
2018-03-04T03:31:27.931Z,87.72
2018-03-04T03:32:42.602Z,87.72
2018-03-04T03:33:27.944Z,87.81
2018-03-04T03:34:27.995Z,87.81
2018-03-04T03:35:27.705Z,88
2018-03-04T03:36:27.969Z,88
2018-03-04T03:37:27.978Z,87.81
2018-03-04T03:38:27.985Z,88.1
2018-03-04T03:39:27.997Z,88.1
2018-03-04T03:40:28.006Z,87.62
2018-03-04T03:41:27.753Z,87.81
2018-03-04T03:42:28.019Z,87.91
2018-03-04T03:43:27.770Z,87.91
2018-03-04T03:44:28.034Z,87.91
2018-03-04T03:45:28.043Z,87.91
2018-03-04T03:46:28.061Z,87.81
2018-03-04T03:47:28.063Z,88
2018-03-04T03:48:28.070Z,87.91
2018-03-04T03:50:28.083Z,87.91
2018-03-04T03:51:28.093Z,88
2018-03-04T03:52:28.100Z,87.81
2018-03-04T03:53:28.110Z,87.91
2018-03-04T03:54:28.129Z,87.81
2018-03-04T03:55:28.126Z,88
2018-03-04T03:56:28.233Z,88.1
2018-03-04T03:57:27.886Z,88
2018-03-04T03:58:28.169Z,88.66
2018-03-04T03:59:28.172Z,88.38
2018-03-04T04:00:28.168Z,88.19
2018-03-04T04:01:28.175Z,88.38
2018-03-04T04:02:28.193Z,88.66
2018-03-04T04:03:28.190Z,88.47
2018-03-04T04:04:42.863Z,88.66
2018-03-04T04:06:28.219Z,88.57
2018-03-04T04:08:28.230Z,89.04
2018-03-04T04:09:28.239Z,89.23
2018-03-04T04:10:28.253Z,88.85
2018-03-04T04:11:28.005Z,89.04
2018-03-04T04:12:28.272Z,89.04
2018-03-04T04:13:28.272Z,88.66
2018-03-04T04:14:28.027Z,88.85
2018-03-04T04:16:28.295Z,89.23
2018-03-04T04:17:28.049Z,89.04
2018-03-04T04:18:28.312Z,89.42
2018-03-04T04:19:28.318Z,89.51
2018-03-04T04:20:42.996Z,89.23
2018-03-04T04:21:28.334Z,89.51
2018-03-04T04:23:28.351Z,89.04
2018-03-04T04:24:28.105Z,88.76
2018-03-04T04:25:28.370Z,89.04
2018-03-04T04:26:28.375Z,89.04
2018-03-04T04:27:28.385Z,88.95
2018-03-04T04:28:28.396Z,89.7
2018-03-04T04:29:28.399Z,89.61
2018-03-04T04:30:28.408Z,89.32
2018-03-04T04:31:28.162Z,89.32
2018-03-04T04:32:28.426Z,89.32
2018-03-04T04:33:28.434Z,89.42
2018-03-04T04:34:28.441Z,89.42
2018-03-04T04:35:28.449Z,89.32
2018-03-04T04:36:43.127Z,89.42
2018-03-04T04:37:28.469Z,89.42
2018-03-04T04:40:28.496Z,89.32
2018-03-04T04:41:28.242Z,89.32
2018-03-04T04:42:28.508Z,89.42
2018-03-04T04:43:28.516Z,89.23
2018-03-04T04:44:28.582Z,89.32
2018-03-04T04:45:28.591Z,89.42
2018-03-04T04:46:28.541Z,89.32
2018-03-04T04:47:28.546Z,89.61
2018-03-04T04:48:28.552Z,89.42
2018-03-04T04:50:28.570Z,89.42
2018-03-04T04:51:28.325Z,89.42
2018-03-04T04:52:43.253Z,89.32
2018-03-04T04:53:28.596Z,89.23
2018-03-04T04:54:28.349Z,89.51
2018-03-04T04:55:28.610Z,89.7
2018-03-04T04:56:28.620Z,89.98
2018-03-04T04:57:28.628Z,90.17
2018-03-04T04:58:28.635Z,90.08
2018-03-04T04:59:28.666Z,90.08
2018-03-04T05:00:28.657Z,90.08
2018-03-04T05:01:28.659Z,90.17
2018-03-04T05:02:28.671Z,90.45
2018-03-04T05:03:28.676Z,90.08
2018-03-04T05:05:28.698Z,90.26
2018-03-04T05:06:28.706Z,90.08
2018-03-04T05:07:43.376Z,89.89
2018-03-04T05:08:28.715Z,89.89
2018-03-04T05:09:28.725Z,90.17
2018-03-04T05:10:28.737Z,89.98
2018-03-04T05:11:28.740Z,89.79
2018-03-04T05:12:28.494Z,90.17
2018-03-04T05:13:28.502Z,90.36
2018-03-04T05:14:28.509Z,90.26
2018-03-04T05:15:28.781Z,89.51
2018-03-04T05:16:28.782Z,89.61
2018-03-04T05:17:28.789Z,89.51
2018-03-04T05:18:28.799Z,90.26
2018-03-04T05:19:28.807Z,90.26
2018-03-04T05:20:28.813Z,90.26
2018-03-04T05:21:28.820Z,90.36
2018-03-04T05:22:28.835Z,90.36
2018-03-04T05:23:28.837Z,90.08
2018-03-04T05:24:28.589Z,89.89
2018-03-04T05:26:28.860Z,90.36
2018-03-04T05:28:28.878Z,90.45
2018-03-04T05:29:28.630Z,90.64
2018-03-04T05:30:28.893Z,90.45
2018-03-04T05:31:28.904Z,90.55
2018-03-04T05:32:28.910Z,90.64
2018-03-04T05:33:28.918Z,90.45
2018-03-04T05:34:28.930Z,90.64
2018-03-04T05:35:28.946Z,90.55
2018-03-04T05:36:28.940Z,90.45
2018-03-04T05:37:28.949Z,90.36
2018-03-04T05:38:28.957Z,90.36
2018-03-04T05:39:43.632Z,90.55
2018-03-04T05:40:28.972Z,90.45
2018-03-04T05:42:28.990Z,90.17
2018-03-04T05:43:28.997Z,90.17
2018-03-04T05:44:29.018Z,90.26
2018-03-04T05:45:29.012Z,90.36
2018-03-04T05:46:29.024Z,90.17
2018-03-04T05:47:29.030Z,90.17
2018-03-04T05:48:29.044Z,90.45
2018-03-04T05:49:29.051Z,90.17
2018-03-04T05:50:29.057Z,90.17
2018-03-04T05:51:29.061Z,90.36
2018-03-04T05:52:29.071Z,89.79
2018-03-04T05:54:29.089Z,89.61
2018-03-04T05:55:43.760Z,89.98
2018-03-04T05:56:29.108Z,90.64
2018-03-04T05:57:29.114Z,90.26
2018-03-04T05:58:29.120Z,89.89
2018-03-04T05:59:29.125Z,90.26
2018-03-04T06:00:29.132Z,89.89
2018-03-04T06:01:28.886Z,90.64
2018-03-04T06:02:29.149Z,89.79
2018-03-04T06:03:29.157Z,89.89
2018-03-04T06:04:28.911Z,90.26
2018-03-04T06:05:29.179Z,89.7
2018-03-04T06:06:29.183Z,90.36
2018-03-04T06:07:29.189Z,90.64
2018-03-04T06:08:29.198Z,90.17
2018-03-04T06:09:28.952Z,90.36
2018-03-04T06:11:43.888Z,89.79
2018-03-04T06:13:29.240Z,90.17
2018-03-04T06:14:29.253Z,90.17
2018-03-04T06:15:29.256Z,89.51
2018-03-04T06:16:29.267Z,90.26
2018-03-04T06:17:29.275Z,89.7
2018-03-04T06:18:29.281Z,89.98
2018-03-04T06:19:29.289Z,90.17
2018-03-04T06:20:29.296Z,89.7
2018-03-04T06:21:29.049Z,89.98
2018-03-04T06:22:29.316Z,89.32
2018-03-04T06:23:29.320Z,89.23
2018-03-04T06:24:29.074Z,89.51
2018-03-04T06:25:29.337Z,88.95
2018-03-04T06:26:29.350Z,89.23
2018-03-04T06:27:44.021Z,88.85
2018-03-04T06:28:29.415Z,88.47
2018-03-04T06:30:29.383Z,88.1
2018-03-04T06:31:29.394Z,87.72
2018-03-04T06:32:29.148Z,87.34
2018-03-04T06:33:29.485Z,87.15
2018-03-04T06:34:29.168Z,87.25
2018-03-04T06:35:29.434Z,86.49
2018-03-04T06:36:29.446Z,86.63
2018-03-04T06:37:29.456Z,86.07
2018-03-04T06:39:29.480Z,85.78
2018-03-04T06:40:29.493Z,85.31
2018-03-04T06:42:44.185Z,85.22
2018-03-04T06:43:29.525Z,85.03
2018-03-04T06:44:29.291Z,85.13
2018-03-04T06:45:29.296Z,84.56
2018-03-04T06:46:29.564Z,84.56
2018-03-04T06:47:29.578Z,84.09
2018-03-04T06:48:29.589Z,83.71
2018-03-04T06:49:29.606Z,83.71
2018-03-04T06:50:29.359Z,83.24
2018-03-04T06:51:29.634Z,82.86
2018-03-04T06:52:29.640Z,83.14
2018-03-04T06:53:29.656Z,82.48
2018-03-04T06:54:29.671Z,82.2
2018-03-04T06:56:29.699Z,82.1
2018-03-04T06:57:29.711Z,81.92
2018-03-04T07:01:29.766Z,81.54
2018-03-04T07:02:29.782Z,81.07
2018-03-04T07:03:29.794Z,80.51
2018-03-04T07:04:29.809Z,80.92
2018-03-04T07:05:29.827Z,80.17
2018-03-04T07:06:29.843Z,80.54
2018-03-04T07:07:29.854Z,80.17
2018-03-04T07:08:29.874Z,79.79
2018-03-04T07:09:29.888Z,79.69
2018-03-04T07:10:29.969Z,79.13
2018-03-04T07:11:29.915Z,78.56
2018-03-04T07:12:29.936Z,77.72
2018-03-04T07:13:29.990Z,77.62
2018-03-04T07:14:44.635Z,77.34
2018-03-04T07:15:29.977Z,77.44
2018-03-04T07:16:29.997Z,76.68
2018-03-04T07:18:30.033Z,76.3
2018-03-04T07:19:30.047Z,76.58
2018-03-04T07:20:30.062Z,76.3
2018-03-04T07:21:30.076Z,75.83
2018-03-04T07:22:29.838Z,75.92
2018-03-04T07:23:30.215Z,75.45
2018-03-04T07:24:29.872Z,75.02
2018-03-04T07:25:29.889Z,74.26
2018-03-04T07:26:30.160Z,74.07
2018-03-04T07:27:29.922Z,74.51
2018-03-04T07:28:30.194Z,73.94
2018-03-04T07:29:30.213Z,73.66
2018-03-04T07:30:44.895Z,73.85
2018-03-04T07:31:30.245Z,73.98
2018-03-04T07:32:30.260Z,74.17
2018-03-04T07:33:30.277Z,73.69
2018-03-04T07:34:30.292Z,72.56
2018-03-04T07:35:30.055Z,72.66
2018-03-04T07:36:30.326Z,72
2018-03-04T07:37:30.344Z,72.09
2018-03-04T07:38:30.358Z,71.62
2018-03-04T07:39:30.375Z,70.9
2018-03-04T07:40:30.395Z,70.24
2018-03-04T07:41:30.156Z,69.96
2018-03-04T07:42:30.427Z,69.39
2018-03-04T07:43:30.446Z,68.63
2018-03-04T07:44:30.459Z,68.63
2018-03-04T07:45:30.481Z,68.16
2018-03-04T07:46:45.160Z,68.16
2018-03-04T07:47:30.508Z,68.35
2018-03-04T07:49:30.547Z,67.88
2018-03-04T07:50:30.303Z,68.07
2018-03-04T07:51:30.574Z,68.26
2018-03-04T07:52:30.710Z,67.79
2018-03-04T07:53:30.352Z,67.5
2018-03-04T07:54:30.620Z,67.6
2018-03-04T07:55:30.638Z,67.5
2018-03-04T07:56:30.654Z,67.5
2018-03-04T07:57:30.411Z,67.03
2018-03-04T07:58:30.428Z,66.84
2018-03-04T07:59:30.701Z,66.84
2018-03-04T08:00:30.731Z,66.84
2018-03-04T08:01:30.730Z,66.56
2018-03-04T08:02:45.413Z,66.09
2018-03-04T08:03:30.763Z,66.28
2018-03-04T08:05:30.792Z,65.8
2018-03-04T08:06:30.807Z,64.76
2018-03-04T08:07:30.567Z,64.76
2018-03-04T08:08:30.885Z,64.95
2018-03-04T08:09:30.954Z,65.05
2018-03-04T08:10:30.873Z,64.67
2018-03-04T08:11:30.948Z,64.76
2018-03-04T08:12:30.901Z,65.52
2018-03-04T08:13:30.912Z,65.33
2018-03-04T08:14:30.926Z,65.8
2018-03-04T08:15:30.953Z,65.8
2018-03-04T08:17:45.639Z,66.09
2018-03-04T08:18:30.740Z,65.23
2018-03-04T08:19:31.006Z,65.05
2018-03-04T08:20:30.758Z,64.48
2018-03-04T08:21:31.032Z,64.79
2018-03-04T08:22:31.044Z,64.23
2018-03-04T08:23:31.055Z,63.57
2018-03-04T08:24:31.072Z,63.57
2018-03-04T08:25:31.094Z,63.67
2018-03-04T08:26:31.098Z,63.48
2018-03-04T08:27:31.112Z,63.57
2018-03-04T08:28:31.173Z,62.72
2018-03-04T08:29:31.145Z,62.15
2018-03-04T08:30:31.158Z,62.25
2018-03-04T08:31:31.173Z,61.49
2018-03-04T08:32:31.187Z,61.58
2018-03-04T08:33:31.205Z,61.87
2018-03-04T08:35:31.232Z,61.96
2018-03-04T08:36:31.268Z,62.62
2018-03-04T08:37:31.261Z,62.53
2018-03-04T08:38:31.275Z,61.96
2018-03-04T08:39:31.295Z,61.49
2018-03-04T08:40:31.357Z,61.58
2018-03-04T08:41:31.322Z,61.49
2018-03-04T08:42:31.331Z,60.74
2018-03-04T08:43:31.348Z,61.02
2018-03-04T08:44:31.361Z,60.55
2018-03-04T08:46:31.136Z,60.39
2018-03-04T08:47:31.404Z,60.2
2018-03-04T08:48:31.420Z,59.6
2018-03-04T08:49:46.103Z,59.7
2018-03-04T08:51:31.477Z,59.79
2018-03-04T08:52:31.482Z,59.82
2018-03-04T08:53:31.495Z,59.73
2018-03-04T08:54:31.511Z,59.82
2018-03-04T08:55:31.525Z,59.35
2018-03-04T08:56:31.540Z,58.97
2018-03-04T08:57:31.298Z,58.59
2018-03-04T08:58:31.569Z,59.06
2018-03-04T08:59:31.585Z,59.16
2018-03-04T09:00:31.600Z,59.06
2018-03-04T09:01:31.617Z,58.97
2018-03-04T09:02:31.630Z,58.87
2018-03-04T09:03:31.712Z,58.78
2018-03-04T09:04:31.410Z,59.06
2018-03-04T09:05:46.342Z,58.69
2018-03-04T09:06:31.692Z,58.5
2018-03-04T09:07:31.705Z,58.69
2018-03-04T09:08:31.769Z,58.12
2018-03-04T09:09:31.768Z,58.12
2018-03-04T09:10:31.747Z,58.12
2018-03-04T09:11:31.509Z,58.22
2018-03-04T09:12:31.781Z,58.22
2018-03-04T09:13:31.796Z,57.58
2018-03-04T09:14:31.554Z,57.68
2018-03-04T09:15:31.827Z,57.87
2018-03-04T09:16:31.849Z,57.3
2018-03-04T09:17:31.860Z,56.82
2018-03-04T09:18:31.616Z,56.26
2018-03-04T09:19:31.888Z,56.45
2018-03-04T09:20:31.913Z,56.35
2018-03-04T09:21:46.583Z,56.45
2018-03-04T09:22:31.938Z,56.63
2018-03-04T09:23:31.949Z,56.35
2018-03-04T09:24:31.962Z,56.54
2018-03-04T09:25:32.027Z,56.26
2018-03-04T09:26:31.994Z,56.54
2018-03-04T09:27:32.014Z,56.63
2018-03-04T09:28:32.026Z,56.45
2018-03-04T09:29:32.041Z,56.63
2018-03-04T09:30:32.062Z,56.54
2018-03-04T09:31:32.070Z,56.26
2018-03-04T09:32:32.091Z,56.45
2018-03-04T09:33:32.111Z,56.45
2018-03-04T09:34:32.116Z,56.45
2018-03-04T09:35:31.877Z,55.6
2018-03-04T09:36:32.145Z,55.88
2018-03-04T09:37:46.829Z,55.79
2018-03-04T09:38:32.202Z,55.79
2018-03-04T09:39:32.199Z,55.41
2018-03-04T09:40:31.952Z,55.69
2018-03-04T09:41:32.221Z,55.88
2018-03-04T09:42:32.239Z,55.31
2018-03-04T09:43:32.256Z,55.12
2018-03-04T09:44:32.271Z,55.22
2018-03-04T09:45:32.395Z,55.22
2018-03-04T09:46:32.304Z,55.6
2018-03-04T09:47:32.317Z,55.12
2018-03-04T09:48:32.337Z,55.5
2018-03-04T09:50:32.107Z,55.6
2018-03-04T09:51:32.380Z,55.31
2018-03-04T09:52:47.062Z,55.31
2018-03-04T09:54:32.426Z,55.12
2018-03-04T09:55:32.440Z,55.63
2018-03-04T09:56:32.456Z,55.31
2018-03-04T09:57:32.473Z,55.25
2018-03-04T09:58:32.487Z,55.15
2018-03-04T09:59:32.501Z,55.06
2018-03-04T10:00:32.516Z,55.06
2018-03-04T10:01:32.287Z,54.96
2018-03-04T10:02:32.548Z,55.44
2018-03-04T10:03:32.562Z,55.25
2018-03-04T10:04:32.323Z,54.39
2018-03-04T10:05:32.336Z,54.39
2018-03-04T10:06:32.606Z,54.3
2018-03-04T10:07:32.627Z,54.58
2018-03-04T10:10:32.413Z,53.83
2018-03-04T10:11:32.686Z,54.02
2018-03-04T10:12:32.444Z,53.92
2018-03-04T10:13:32.721Z,53.64
2018-03-04T10:14:32.733Z,53.83
2018-03-04T10:15:32.492Z,54.11
2018-03-04T10:16:32.763Z,54.02
2018-03-04T10:17:32.780Z,53.83
2018-03-04T10:18:32.794Z,54.23
2018-03-04T10:19:32.817Z,53.76
2018-03-04T10:20:32.871Z,54.04
2018-03-04T10:22:32.600Z,53.95
2018-03-04T10:23:32.869Z,53.95
2018-03-04T10:24:47.557Z,53.92
2018-03-04T10:25:32.648Z,53.92
2018-03-04T10:26:32.922Z,53.83
2018-03-04T10:27:32.933Z,54.02
2018-03-04T10:28:32.694Z,53.83
2018-03-04T10:29:32.710Z,54.11
2018-03-04T10:30:32.725Z,53.83
2018-03-04T10:31:32.789Z,53.74
2018-03-04T10:32:33.011Z,53.92
2018-03-04T10:33:33.030Z,54.39
2018-03-04T10:34:32.786Z,54.3
2018-03-04T10:35:33.059Z,54.39
2018-03-04T10:36:33.073Z,54.39
2018-03-04T10:37:33.089Z,54.3
2018-03-04T10:38:32.849Z,54.3
2018-03-04T10:39:33.122Z,54.3
2018-03-04T10:40:47.805Z,54.11
2018-03-04T10:41:33.155Z,54.3
2018-03-04T10:42:33.163Z,54.39
2018-03-04T10:43:32.923Z,54.21
2018-03-04T10:45:33.209Z,54.11
2018-03-04T10:46:33.222Z,54.11
2018-03-04T10:47:33.243Z,54.39
2018-03-04T10:48:33.260Z,54.68
2018-03-04T10:49:33.013Z,54.3
2018-03-04T10:50:33.028Z,53.74
2018-03-04T10:51:33.299Z,53.92
2018-03-04T10:52:33.489Z,54.02
2018-03-04T10:53:33.328Z,54.02
2018-03-04T10:54:33.343Z,53.92
2018-03-04T10:55:33.356Z,53.85
2018-03-04T10:56:48.038Z,54.02
2018-03-04T10:57:33.384Z,54.11
2018-03-04T10:59:33.415Z,53.74
2018-03-04T11:00:33.426Z,53.92
2018-03-04T11:01:33.188Z,54.02
2018-03-04T11:02:33.457Z,53.83
2018-03-04T11:03:33.471Z,53.92
2018-03-04T11:04:33.232Z,53.92
2018-03-04T11:05:33.502Z,53.83
2018-03-04T11:06:33.518Z,53.76
2018-03-04T11:07:33.531Z,54.21
2018-03-04T11:08:33.547Z,53.74
2018-03-04T11:09:33.304Z,53.74
2018-03-04T11:10:33.319Z,54.21
2018-03-04T11:11:33.639Z,54.02
2018-03-04T11:12:48.269Z,54.21
2018-03-04T11:14:33.634Z,54.11
2018-03-04T11:16:33.669Z,54.3
2018-03-04T11:17:33.673Z,54.02
2018-03-04T11:18:33.687Z,53.66
2018-03-04T11:19:33.703Z,53.95
2018-03-04T11:20:33.461Z,53.85
2018-03-04T11:21:33.734Z,53.66
2018-03-04T11:22:33.744Z,54.14
2018-03-04T11:23:33.759Z,53.85
2018-03-04T11:24:33.772Z,53.95
2018-03-04T11:25:33.787Z,53.38
2018-03-04T11:26:33.808Z,53.28
2018-03-04T11:27:48.485Z,53.57
2018-03-04T11:28:33.914Z,53.66
2018-03-04T11:29:33.843Z,53.57
2018-03-04T11:30:33.864Z,52.72
2018-03-04T11:31:33.872Z,53.38
2018-03-04T11:32:33.886Z,52.81
2018-03-04T11:33:33.901Z,53.03
2018-03-04T11:34:33.916Z,52.65
2018-03-04T11:35:33.675Z,52.75
2018-03-04T11:36:33.945Z,52.91
2018-03-04T11:37:33.704Z,52.81
2018-03-04T11:38:33.718Z,53.57
2018-03-04T11:39:33.988Z,53.22
2018-03-04T11:40:34.001Z,52.94
2018-03-04T11:41:33.761Z,52.84
2018-03-04T11:42:34.030Z,52.94
2018-03-04T11:43:34.049Z,52.46
2018-03-04T11:45:34.073Z,52.56
2018-03-04T11:46:34.092Z,52.56
2018-03-04T11:47:34.102Z,52.27
2018-03-04T11:48:34.115Z,52.56
2018-03-04T11:49:34.136Z,52.46
2018-03-04T11:50:34.148Z,52.46
2018-03-04T11:51:34.161Z,52.18
2018-03-04T11:52:34.175Z,52.46
2018-03-04T11:53:33.932Z,52.56
2018-03-04T11:54:34.215Z,52.46
2018-03-04T11:55:34.226Z,52.27
2018-03-04T11:56:34.233Z,52.56
2018-03-04T11:57:34.255Z,52.27
2018-03-04T11:58:34.262Z,51.89
2018-03-04T11:59:48.943Z,51.8
2018-03-04T12:00:34.292Z,51.99
2018-03-04T12:02:34.318Z,52.2
2018-03-04T12:03:34.333Z,51.92
2018-03-04T12:04:34.347Z,51.35
2018-03-04T12:05:34.361Z,51.45
2018-03-04T12:06:34.380Z,51.45
2018-03-04T12:07:34.392Z,51.45
2018-03-04T12:08:34.406Z,51.54
2018-03-04T12:09:34.440Z,51.45
2018-03-04T12:10:34.435Z,51.35
2018-03-04T12:11:34.454Z,51.82
2018-03-04T12:12:34.464Z,51.82
2018-03-04T12:13:34.478Z,51.82
2018-03-04T12:14:34.493Z,52.11
2018-03-04T12:15:49.176Z,51.82
2018-03-04T12:16:34.523Z,51.92
2018-03-04T12:17:34.536Z,52.11
2018-03-04T12:18:34.552Z,52.2
2018-03-04T12:19:34.311Z,52.01
2018-03-04T12:20:34.581Z,52.11
2018-03-04T12:21:34.598Z,51.73
2018-03-04T12:22:34.612Z,52.2
2018-03-04T12:23:34.624Z,52.39
2018-03-04T12:24:34.639Z,52.48
2018-03-04T12:25:34.652Z,52.11
2018-03-04T12:26:34.675Z,52.58
2018-03-04T12:27:34.682Z,52.58
2018-03-04T12:28:34.698Z,52.87
2018-03-04T12:29:34.714Z,53.06
2018-03-04T12:30:34.725Z,53.06
2018-03-04T12:31:49.408Z,52.87
2018-03-04T12:32:34.755Z,53.06
2018-03-04T12:34:34.786Z,52.96
2018-03-04T12:35:34.799Z,52.87
2018-03-04T12:36:34.818Z,53.06
2018-03-04T12:37:34.828Z,52.96
2018-03-04T12:38:34.846Z,52.87
2018-03-04T12:39:34.858Z,52.48
2018-03-04T12:40:34.874Z,52.48
2018-03-04T12:41:34.888Z,52.29
2018-03-04T12:42:35.000Z,52.48
2018-03-04T12:43:34.918Z,52.2
2018-03-04T12:44:34.931Z,52.01
2018-03-04T12:45:34.945Z,52.29
2018-03-04T12:46:35.007Z,52.11
2018-03-04T12:47:49.643Z,51.92
2018-03-04T12:48:34.989Z,52.11
2018-03-04T12:49:35.005Z,52.11
2018-03-04T12:50:35.019Z,52.11
2018-03-04T12:51:35.033Z,51.82
2018-03-04T12:52:35.054Z,52.11
2018-03-04T12:53:35.064Z,52.01
2018-03-04T12:54:35.081Z,52.11
2018-03-04T12:55:35.243Z,52.01
2018-03-04T12:56:34.862Z,52.11
2018-03-04T12:57:34.865Z,51.82
2018-03-04T12:58:34.881Z,51.73
2018-03-04T12:59:35.153Z,52.01
2018-03-04T13:01:35.182Z,51.92
2018-03-04T13:02:49.863Z,51.26
2018-03-04T13:03:35.222Z,51.47
2018-03-04T13:04:35.224Z,51.35
2018-03-04T13:05:35.238Z,51.26
2018-03-04T13:06:35.256Z,51.07
2018-03-04T13:07:35.268Z,51.16
2018-03-04T13:08:35.029Z,51.45
2018-03-04T13:09:35.044Z,50.97
2018-03-04T13:10:35.314Z,51.16
2018-03-04T13:11:35.328Z,50.9
2018-03-04T13:12:35.344Z,50.99
2018-03-04T13:13:35.358Z,50.71
2018-03-04T13:14:35.119Z,50.99
2018-03-04T13:15:35.454Z,50.52
2018-03-04T13:16:35.413Z,50.81
2018-03-04T13:17:35.522Z,50.71
2018-03-04T13:19:35.445Z,50.62
2018-03-04T13:20:35.464Z,50.9
2018-03-04T13:21:35.477Z,50.99
2018-03-04T13:22:35.492Z,50.81
2018-03-04T13:23:35.580Z,50.9
2018-03-04T13:24:35.270Z,50.71
2018-03-04T13:25:35.539Z,50.88
2018-03-04T13:26:35.557Z,50.97
2018-03-04T13:27:35.571Z,51.07
2018-03-04T13:28:35.582Z,50.99
2018-03-04T13:29:35.596Z,51.09
2018-03-04T13:30:35.612Z,50.78
2018-03-04T13:31:35.626Z,51.07
2018-03-04T13:32:35.640Z,50.97
2018-03-04T13:33:35.655Z,51.26
2018-03-04T13:34:50.339Z,51.09
2018-03-04T13:35:35.685Z,50.9
2018-03-04T13:36:35.700Z,51.09
2018-03-04T13:37:35.717Z,51.09
2018-03-04T13:39:35.748Z,50.81
2018-03-04T13:40:35.785Z,50.81
2018-03-04T13:41:35.527Z,50.81
2018-03-04T13:42:35.790Z,50.62
2018-03-04T13:43:35.807Z,50.78
2018-03-04T13:44:35.818Z,50.97
2018-03-04T13:45:35.836Z,50.88
2018-03-04T13:46:35.927Z,50.97
2018-03-04T13:47:35.866Z,51.07
2018-03-04T13:48:35.877Z,50.99
2018-03-04T13:49:35.899Z,50.81
2018-03-04T13:50:50.578Z,50.71